sensor_id;sensor_type;location;lat;lon;timestamp;P1;durP1;ratioP1;P2;durP2;ratioP2
2111;SDS011;1062;52.538;13.400;2022-10-19T00:00:25;5.10;;;2.27;;
2111;SDS011;1062;52.538;13.400;2022-10-19T00:02:50;5.10;;;2.90;;
2111;SDS011;1062;52.538;13.400;2022-10-19T00:05:16;8.87;;;2.80;;
2111;SDS011;1062;52.538;13.400;2022-10-19T00:07:41;11.43;;;3.13;;
2111;SDS011;1062;52.538;13.400;2022-10-19T00:10:07;5.27;;;2.57;;
2111;SDS011;1062;52.538;13.400;2022-10-19T00:12:33;4.10;;;2.30;;
2111;SDS011;1062;52.538;13.400;2022-10-19T00:14:58;4.93;;;2.10;;
2111;SDS011;1062;52.538;13.400;2022-10-19T00:17:24;2.00;;;1.80;;
2111;SDS011;1062;52.538;13.400;2022-10-19T00:19:49;4.57;;;2.43;;
2111;SDS011;1062;52.538;13.400;2022-10-19T00:22:15;3.20;;;2.00;;
2111;SDS011;1062;52.538;13.400;2022-10-19T00:24:41;5.53;;;2.20;;
2111;SDS011;1062;52.538;13.400;2022-10-19T00:27:06;4.20;;;2.33;;
2111;SDS011;1062;52.538;13.400;2022-10-19T00:29:32;3.37;;;1.83;;
2111;SDS011;1062;52.538;13.400;2022-10-19T00:31:57;4.00;;;1.97;;
2111;SDS011;1062;52.538;13.400;2022-10-19T00:34:23;3.20;;;1.60;;
2111;SDS011;1062;52.538;13.400;2022-10-19T00:36:49;5.27;;;2.00;;
2111;SDS011;1062;52.538;13.400;2022-10-19T00:39:15;3.73;;;1.57;;
2111;SDS011;1062;52.538;13.400;2022-10-19T00:41:42;5.53;;;1.37;;
2111;SDS011;1062;52.538;13.400;2022-10-19T00:46:38;5.67;;;1.50;;
2111;SDS011;1062;52.538;13.400;2022-10-19T00:51:33;4.73;;;3.50;;
2111;SDS011;1062;52.538;13.400;2022-10-19T00:54:03;3.67;;;1.97;;
2111;SDS011;1062;52.538;13.400;2022-10-19T00:56:31;2.13;;;1.77;;
2111;SDS011;1062;52.538;13.400;2022-10-19T00:58:57;2.83;;;2.00;;
2111;SDS011;1062;52.538;13.400;2022-10-19T01:01:23;2.20;;;1.70;;
2111;SDS011;1062;52.538;13.400;2022-10-19T01:03:51;3.30;;;1.67;;
2111;SDS011;1062;52.538;13.400;2022-10-19T01:06:16;2.57;;;1.43;;
2111;SDS011;1062;52.538;13.400;2022-10-19T01:08:43;7.30;;;2.20;;
2111;SDS011;1062;52.538;13.400;2022-10-19T01:11:30;5.17;;;1.60;;
2111;SDS011;1062;52.538;13.400;2022-10-19T01:20:09;1.60;;;1.27;;
2111;SDS011;1062;52.538;13.400;2022-10-19T01:25:38;2.03;;;1.27;;
2111;SDS011;1062;52.538;13.400;2022-10-19T01:33:57;3.87;;;1.70;;
2111;SDS011;1062;52.538;13.400;2022-10-19T01:36:39;4.10;;;1.97;;
2111;SDS011;1062;52.538;13.400;2022-10-19T01:39:12;3.47;;;1.33;;
2111;SDS011;1062;52.538;13.400;2022-10-19T01:42:05;2.87;;;1.17;;
2111;SDS011;1062;52.538;13.400;2022-10-19T01:44:52;2.10;;;1.40;;
2111;SDS011;1062;52.538;13.400;2022-10-19T01:47:27;3.97;;;2.80;;
2111;SDS011;1062;52.538;13.400;2022-10-19T01:50:06;1.93;;;1.10;;
2111;SDS011;1062;52.538;13.400;2022-10-19T01:52:39;4.17;;;1.20;;
2111;SDS011;1062;52.538;13.400;2022-10-19T01:55:06;1.53;;;0.93;;
2111;SDS011;1062;52.538;13.400;2022-10-19T01:57:37;3.13;;;1.10;;
2111;SDS011;1062;52.538;13.400;2022-10-19T02:00:07;1.67;;;1.47;;
2111;SDS011;1062;52.538;13.400;2022-10-19T02:02:36;2.00;;;1.03;;
2111;SDS011;1062;52.538;13.400;2022-10-19T02:05:06;2.60;;;2.07;;
2111;SDS011;1062;52.538;13.400;2022-10-19T02:07:34;4.73;;;1.80;;
2111;SDS011;1062;52.538;13.400;2022-10-19T02:10:01;6.10;;;1.90;;
2111;SDS011;1062;52.538;13.400;2022-10-19T02:12:27;6.27;;;1.90;;
2111;SDS011;1062;52.538;13.400;2022-10-19T02:14:57;4.03;;;2.17;;
2111;SDS011;1062;52.538;13.400;2022-10-19T02:17:27;2.23;;;2.13;;
2111;SDS011;1062;52.538;13.400;2022-10-19T02:19:57;6.27;;;1.90;;
2111;SDS011;1062;52.538;13.400;2022-10-19T02:22:24;3.70;;;1.63;;
2111;SDS011;1062;52.538;13.400;2022-10-19T02:24:50;2.07;;;1.20;;
2111;SDS011;1062;52.538;13.400;2022-10-19T02:27:15;2.03;;;1.83;;
2111;SDS011;1062;52.538;13.400;2022-10-19T02:29:41;3.10;;;1.50;;
2111;SDS011;1062;52.538;13.400;2022-10-19T02:32:07;3.47;;;1.80;;
2111;SDS011;1062;52.538;13.400;2022-10-19T02:34:34;3.40;;;1.67;;
2111;SDS011;1062;52.538;13.400;2022-10-19T02:37:00;5.73;;;1.97;;
2111;SDS011;1062;52.538;13.400;2022-10-19T02:39:26;2.40;;;1.30;;
2111;SDS011;1062;52.538;13.400;2022-10-19T02:41:56;4.17;;;1.50;;
2111;SDS011;1062;52.538;13.400;2022-10-19T02:44:35;5.77;;;1.37;;
2111;SDS011;1062;52.538;13.400;2022-10-19T02:47:10;2.53;;;2.33;;
2111;SDS011;1062;52.538;13.400;2022-10-19T02:49:39;5.47;;;1.57;;
2111;SDS011;1062;52.538;13.400;2022-10-19T02:52:07;2.30;;;1.30;;
2111;SDS011;1062;52.538;13.400;2022-10-19T02:54:34;3.20;;;1.40;;
2111;SDS011;1062;52.538;13.400;2022-10-19T02:57:01;1.50;;;1.40;;
2111;SDS011;1062;52.538;13.400;2022-10-19T02:59:39;3.60;;;1.30;;
2111;SDS011;1062;52.538;13.400;2022-10-19T03:02:04;4.77;;;1.70;;
2111;SDS011;1062;52.538;13.400;2022-10-19T03:04:30;5.13;;;1.40;;
2111;SDS011;1062;52.538;13.400;2022-10-19T03:06:55;4.77;;;1.80;;
2111;SDS011;1062;52.538;13.400;2022-10-19T03:09:21;3.00;;;1.50;;
2111;SDS011;1062;52.538;13.400;2022-10-19T03:11:46;4.00;;;2.17;;
2111;SDS011;1062;52.538;13.400;2022-10-19T03:14:12;5.90;;;1.60;;
2111;SDS011;1062;52.538;13.400;2022-10-19T03:16:37;4.50;;;1.80;;
2111;SDS011;1062;52.538;13.400;2022-10-19T03:19:03;2.70;;;1.60;;
2111;SDS011;1062;52.538;13.400;2022-10-19T03:21:28;7.83;;;1.80;;
2111;SDS011;1062;52.538;13.400;2022-10-19T03:23:54;7.00;;;2.13;;
2111;SDS011;1062;52.538;13.400;2022-10-19T03:26:19;3.87;;;1.73;;
2111;SDS011;1062;52.538;13.400;2022-10-19T03:28:45;5.00;;;1.30;;
2111;SDS011;1062;52.538;13.400;2022-10-19T03:31:11;6.27;;;1.50;;
2111;SDS011;1062;52.538;13.400;2022-10-19T03:33:36;2.07;;;1.10;;
2111;SDS011;1062;52.538;13.400;2022-10-19T03:38:51;1.50;;;1.13;;
2111;SDS011;1062;52.538;13.400;2022-10-19T03:41:18;1.63;;;1.00;;
2111;SDS011;1062;52.538;13.400;2022-10-19T03:43:44;2.73;;;1.00;;
2111;SDS011;1062;52.538;13.400;2022-10-19T03:46:10;4.30;;;0.97;;
2111;SDS011;1062;52.538;13.400;2022-10-19T03:48:35;2.70;;;1.03;;
2111;SDS011;1062;52.538;13.400;2022-10-19T03:51:05;1.63;;;0.80;;
2111;SDS011;1062;52.538;13.400;2022-10-19T03:53:36;1.27;;;1.00;;
2111;SDS011;1062;52.538;13.400;2022-10-19T03:56:03;2.93;;;1.30;;
2111;SDS011;1062;52.538;13.400;2022-10-19T03:58:30;1.50;;;1.10;;
2111;SDS011;1062;52.538;13.400;2022-10-19T04:00:57;1.93;;;0.90;;
2111;SDS011;1062;52.538;13.400;2022-10-19T04:03:22;3.53;;;1.03;;
2111;SDS011;1062;52.538;13.400;2022-10-19T04:05:48;5.70;;;1.30;;
2111;SDS011;1062;52.538;13.400;2022-10-19T04:08:14;2.30;;;1.23;;
2111;SDS011;1062;52.538;13.400;2022-10-19T04:10:42;2.73;;;1.00;;
2111;SDS011;1062;52.538;13.400;2022-10-19T04:13:27;1.20;;;1.10;;
2111;SDS011;1062;52.538;13.400;2022-10-19T04:15:53;2.70;;;1.30;;
2111;SDS011;1062;52.538;13.400;2022-10-19T04:18:19;2.10;;;1.00;;
2111;SDS011;1062;52.538;13.400;2022-10-19T04:20:44;4.27;;;1.23;;
2111;SDS011;1062;52.538;13.400;2022-10-19T04:23:10;4.83;;;1.40;;
2111;SDS011;1062;52.538;13.400;2022-10-19T04:25:35;4.70;;;1.43;;
2111;SDS011;1062;52.538;13.400;2022-10-19T04:28:01;4.30;;;1.40;;
2111;SDS011;1062;52.538;13.400;2022-10-19T04:30:27;4.20;;;1.30;;
2111;SDS011;1062;52.538;13.400;2022-10-19T04:32:52;3.93;;;1.20;;
2111;SDS011;1062;52.538;13.400;2022-10-19T04:35:18;4.50;;;1.70;;
2111;SDS011;1062;52.538;13.400;2022-10-19T04:37:43;4.00;;;1.33;;
2111;SDS011;1062;52.538;13.400;2022-10-19T04:40:09;1.43;;;1.20;;
2111;SDS011;1062;52.538;13.400;2022-10-19T04:42:35;2.60;;;1.20;;
2111;SDS011;1062;52.538;13.400;2022-10-19T04:45:01;5.23;;;1.73;;
2111;SDS011;1062;52.538;13.400;2022-10-19T04:47:27;4.80;;;1.17;;
2111;SDS011;1062;52.538;13.400;2022-10-19T04:49:53;1.27;;;1.00;;
2111;SDS011;1062;52.538;13.400;2022-10-19T04:52:19;4.70;;;1.30;;
2111;SDS011;1062;52.538;13.400;2022-10-19T04:54:44;2.17;;;0.97;;
2111;SDS011;1062;52.538;13.400;2022-10-19T04:57:10;3.03;;;1.80;;
2111;SDS011;1062;52.538;13.400;2022-10-19T04:59:36;2.30;;;1.13;;
2111;SDS011;1062;52.538;13.400;2022-10-19T05:02:01;2.83;;;1.07;;
2111;SDS011;1062;52.538;13.400;2022-10-19T05:04:27;5.23;;;0.97;;
2111;SDS011;1062;52.538;13.400;2022-10-19T05:06:53;1.80;;;1.17;;
2111;SDS011;1062;52.538;13.400;2022-10-19T05:09:21;3.30;;;1.50;;
2111;SDS011;1062;52.538;13.400;2022-10-19T05:11:50;2.27;;;1.10;;
2111;SDS011;1062;52.538;13.400;2022-10-19T05:14:16;2.30;;;1.13;;
2111;SDS011;1062;52.538;13.400;2022-10-19T05:16:41;1.67;;;1.00;;
2111;SDS011;1062;52.538;13.400;2022-10-19T05:19:10;1.20;;;1.10;;
2111;SDS011;1062;52.538;13.400;2022-10-19T05:21:39;1.50;;;0.90;;
2111;SDS011;1062;52.538;13.400;2022-10-19T05:24:04;3.83;;;0.90;;
2111;SDS011;1062;52.538;13.400;2022-10-19T05:26:30;2.17;;;1.10;;
2111;SDS011;1062;52.538;13.400;2022-10-19T05:28:57;4.10;;;1.33;;
2111;SDS011;1062;52.538;13.400;2022-10-19T05:31:26;1.00;;;0.90;;
2111;SDS011;1062;52.538;13.400;2022-10-19T05:33:54;4.00;;;1.40;;
2111;SDS011;1062;52.538;13.400;2022-10-19T05:36:27;1.90;;;1.00;;
2111;SDS011;1062;52.538;13.400;2022-10-19T05:38:56;4.17;;;2.97;;
2111;SDS011;1062;52.538;13.400;2022-10-19T05:41:22;1.17;;;0.80;;
2111;SDS011;1062;52.538;13.400;2022-10-19T05:43:53;2.70;;;2.10;;
2111;SDS011;1062;52.538;13.400;2022-10-19T05:46:20;4.10;;;1.50;;
2111;SDS011;1062;52.538;13.400;2022-10-19T05:48:46;4.60;;;1.63;;
2111;SDS011;1062;52.538;13.400;2022-10-19T05:51:13;4.23;;;1.70;;
2111;SDS011;1062;52.538;13.400;2022-10-19T05:53:41;2.10;;;1.03;;
2111;SDS011;1062;52.538;13.400;2022-10-19T05:56:07;2.93;;;1.50;;
2111;SDS011;1062;52.538;13.400;2022-10-19T05:58:39;2.43;;;1.40;;
2111;SDS011;1062;52.538;13.400;2022-10-19T06:01:05;5.63;;;1.10;;
2111;SDS011;1062;52.538;13.400;2022-10-19T06:03:33;6.83;;;1.30;;
2111;SDS011;1062;52.538;13.400;2022-10-19T06:06:01;1.57;;;1.47;;
2111;SDS011;1062;52.538;13.400;2022-10-19T06:08:33;4.10;;;1.33;;
2111;SDS011;1062;52.538;13.400;2022-10-19T06:14:04;3.30;;;1.40;;
2111;SDS011;1062;52.538;13.400;2022-10-19T06:16:35;2.57;;;0.93;;
2111;SDS011;1062;52.538;13.400;2022-10-19T06:19:02;1.93;;;1.83;;
2111;SDS011;1062;52.538;13.400;2022-10-19T06:21:29;2.50;;;0.90;;
2111;SDS011;1062;52.538;13.400;2022-10-19T06:24:00;1.47;;;0.97;;
2111;SDS011;1062;52.538;13.400;2022-10-19T06:26:28;2.10;;;0.93;;
2111;SDS011;1062;52.538;13.400;2022-10-19T06:28:55;2.80;;;1.17;;
2111;SDS011;1062;52.538;13.400;2022-10-19T06:31:24;1.10;;;0.90;;
2111;SDS011;1062;52.538;13.400;2022-10-19T06:33:50;4.10;;;2.30;;
2111;SDS011;1062;52.538;13.400;2022-10-19T06:36:17;1.67;;;1.40;;
2111;SDS011;1062;52.538;13.400;2022-10-19T06:38:45;2.67;;;1.47;;
2111;SDS011;1062;52.538;13.400;2022-10-19T06:41:12;3.90;;;1.13;;
2111;SDS011;1062;52.538;13.400;2022-10-19T06:43:40;5.43;;;1.10;;
2111;SDS011;1062;52.538;13.400;2022-10-19T06:46:09;1.50;;;0.97;;
2111;SDS011;1062;52.538;13.400;2022-10-19T06:48:38;5.13;;;1.50;;
2111;SDS011;1062;52.538;13.400;2022-10-19T06:51:05;2.20;;;1.20;;
2111;SDS011;1062;52.538;13.400;2022-10-19T06:53:31;3.03;;;1.20;;
2111;SDS011;1062;52.538;13.400;2022-10-19T06:55:59;6.60;;;1.00;;
2111;SDS011;1062;52.538;13.400;2022-10-19T06:58:28;3.10;;;1.50;;
2111;SDS011;1062;52.538;13.400;2022-10-19T07:00:59;1.43;;;1.33;;
2111;SDS011;1062;52.538;13.400;2022-10-19T07:03:25;1.60;;;1.00;;
2111;SDS011;1062;52.538;13.400;2022-10-19T07:05:53;1.87;;;1.00;;
2111;SDS011;1062;52.538;13.400;2022-10-19T07:08:23;1.33;;;0.80;;
2111;SDS011;1062;52.538;13.400;2022-10-19T07:10:53;1.80;;;1.13;;
2111;SDS011;1062;52.538;13.400;2022-10-19T07:13:24;5.33;;;1.60;;
2111;SDS011;1062;52.538;13.400;2022-10-19T07:16:02;1.00;;;0.90;;
2111;SDS011;1062;52.538;13.400;2022-10-19T07:18:31;1.30;;;1.07;;
2111;SDS011;1062;52.538;13.400;2022-10-19T07:21:01;3.60;;;1.63;;
2111;SDS011;1062;52.538;13.400;2022-10-19T07:23:29;2.50;;;1.27;;
2111;SDS011;1062;52.538;13.400;2022-10-19T07:25:55;5.50;;;1.10;;
2111;SDS011;1062;52.538;13.400;2022-10-19T07:28:29;2.10;;;0.80;;
2111;SDS011;1062;52.538;13.400;2022-10-19T07:30:55;2.47;;;1.40;;
2111;SDS011;1062;52.538;13.400;2022-10-19T07:33:21;3.33;;;1.30;;
2111;SDS011;1062;52.538;13.400;2022-10-19T07:35:48;2.20;;;0.80;;
2111;SDS011;1062;52.538;13.400;2022-10-19T07:38:18;2.40;;;1.20;;
2111;SDS011;1062;52.538;13.400;2022-10-19T07:40:44;4.30;;;0.87;;
2111;SDS011;1062;52.538;13.400;2022-10-19T07:43:09;4.63;;;1.20;;
2111;SDS011;1062;52.538;13.400;2022-10-19T07:45:35;1.57;;;0.90;;
2111;SDS011;1062;52.538;13.400;2022-10-19T07:48:00;2.60;;;1.27;;
2111;SDS011;1062;52.538;13.400;2022-10-19T07:50:26;3.10;;;0.90;;
2111;SDS011;1062;52.538;13.400;2022-10-19T07:52:52;2.30;;;0.80;;
2111;SDS011;1062;52.538;13.400;2022-10-19T07:55:19;2.20;;;1.13;;
2111;SDS011;1062;52.538;13.400;2022-10-19T07:57:46;1.60;;;0.80;;
2111;SDS011;1062;52.538;13.400;2022-10-19T08:00:12;1.50;;;0.80;;
2111;SDS011;1062;52.538;13.400;2022-10-19T08:02:39;4.77;;;1.10;;
2111;SDS011;1062;52.538;13.400;2022-10-19T08:05:04;1.87;;;0.70;;
2111;SDS011;1062;52.538;13.400;2022-10-19T08:07:34;3.17;;;1.10;;
2111;SDS011;1062;52.538;13.400;2022-10-19T08:09:59;4.80;;;1.00;;
2111;SDS011;1062;52.538;13.400;2022-10-19T08:12:25;2.07;;;1.20;;
2111;SDS011;1062;52.538;13.400;2022-10-19T08:14:52;2.57;;;1.13;;
2111;SDS011;1062;52.538;13.400;2022-10-19T08:17:18;4.20;;;1.47;;
2111;SDS011;1062;52.538;13.400;2022-10-19T08:19:44;2.20;;;0.97;;
2111;SDS011;1062;52.538;13.400;2022-10-19T08:22:10;3.70;;;1.43;;
2111;SDS011;1062;52.538;13.400;2022-10-19T08:24:42;2.83;;;1.10;;
2111;SDS011;1062;52.538;13.400;2022-10-19T08:27:07;5.77;;;1.27;;
2111;SDS011;1062;52.538;13.400;2022-10-19T08:29:36;3.70;;;1.20;;
2111;SDS011;1062;52.538;13.400;2022-10-19T08:32:01;1.80;;;1.20;;
2111;SDS011;1062;52.538;13.400;2022-10-19T08:34:27;2.53;;;1.70;;
2111;SDS011;1062;52.538;13.400;2022-10-19T08:36:56;1.13;;;1.03;;
2111;SDS011;1062;52.538;13.400;2022-10-19T08:39:22;1.93;;;1.03;;
2111;SDS011;1062;52.538;13.400;2022-10-19T08:47:27;5.40;;;1.30;;
2111;SDS011;1062;52.538;13.400;2022-10-19T08:49:59;1.57;;;1.30;;
2111;SDS011;1062;52.538;13.400;2022-10-19T08:52:32;1.83;;;0.90;;
2111;SDS011;1062;52.538;13.400;2022-10-19T08:55:00;1.20;;;0.80;;
2111;SDS011;1062;52.538;13.400;2022-10-19T09:01:06;2.30;;;1.00;;
2111;SDS011;1062;52.538;13.400;2022-10-19T09:03:30;2.03;;;1.10;;
2111;SDS011;1062;52.538;13.400;2022-10-19T09:09:14;4.53;;;0.87;;
2111;SDS011;1062;52.538;13.400;2022-10-19T09:11:43;4.90;;;1.20;;
2111;SDS011;1062;52.538;13.400;2022-10-19T09:16:44;1.13;;;1.00;;
2111;SDS011;1062;52.538;13.400;2022-10-19T09:19:23;3.67;;;1.60;;
2111;SDS011;1062;52.538;13.400;2022-10-19T09:21:54;2.13;;;0.90;;
2111;SDS011;1062;52.538;13.400;2022-10-19T09:27:10;4.37;;;1.10;;
2111;SDS011;1062;52.538;13.400;2022-10-19T09:29:45;1.13;;;0.90;;
2111;SDS011;1062;52.538;13.400;2022-10-19T09:32:23;3.60;;;0.97;;
2111;SDS011;1062;52.538;13.400;2022-10-19T09:34:54;2.60;;;0.90;;
2111;SDS011;1062;52.538;13.400;2022-10-19T09:37:22;2.93;;;1.30;;
2111;SDS011;1062;52.538;13.400;2022-10-19T09:39:48;2.97;;;0.97;;
2111;SDS011;1062;52.538;13.400;2022-10-19T09:42:22;4.97;;;0.70;;
2111;SDS011;1062;52.538;13.400;2022-10-19T09:45:00;1.20;;;0.90;;
2111;SDS011;1062;52.538;13.400;2022-10-19T09:47:37;1.80;;;0.83;;
2111;SDS011;1062;52.538;13.400;2022-10-19T09:50:06;2.17;;;0.90;;
2111;SDS011;1062;52.538;13.400;2022-10-19T09:52:38;1.50;;;0.90;;
2111;SDS011;1062;52.538;13.400;2022-10-19T10:00:41;3.93;;;1.00;;
2111;SDS011;1062;52.538;13.400;2022-10-19T10:06:14;3.10;;;0.77;;
2111;SDS011;1062;52.538;13.400;2022-10-19T10:08:45;1.37;;;0.70;;
2111;SDS011;1062;52.538;13.400;2022-10-19T10:11:13;3.33;;;1.00;;
2111;SDS011;1062;52.538;13.400;2022-10-19T10:13:51;1.13;;;0.70;;
2111;SDS011;1062;52.538;13.400;2022-10-19T10:16:23;1.93;;;0.83;;
2111;SDS011;1062;52.538;13.400;2022-10-19T10:18:59;2.20;;;0.80;;
2111;SDS011;1062;52.538;13.400;2022-10-19T10:21:31;1.80;;;0.80;;
2111;SDS011;1062;52.538;13.400;2022-10-19T10:27:23;1.37;;;0.80;;
2111;SDS011;1062;52.538;13.400;2022-10-19T10:29:26;1.30;;;0.80;;
2111;SDS011;1062;52.538;13.400;2022-10-19T10:40:15;2.97;;;0.80;;
2111;SDS011;1062;52.538;13.400;2022-10-19T10:42:55;1.13;;;0.70;;
2111;SDS011;1062;52.538;13.400;2022-10-19T10:45:30;0.93;;;0.70;;
2111;SDS011;1062;52.538;13.400;2022-10-19T10:47:58;0.87;;;0.73;;
2111;SDS011;1062;52.538;13.400;2022-10-19T10:50:36;1.67;;;0.77;;
2111;SDS011;1062;52.538;13.400;2022-10-19T10:53:06;0.77;;;0.60;;
2111;SDS011;1062;52.538;13.400;2022-10-19T10:55:55;0.93;;;0.70;;
2111;SDS011;1062;52.538;13.400;2022-10-19T10:58:24;1.00;;;0.80;;
2111;SDS011;1062;52.538;13.400;2022-10-19T11:01:17;0.80;;;0.70;;
2111;SDS011;1062;52.538;13.400;2022-10-19T11:03:47;1.53;;;0.60;;
2111;SDS011;1062;52.538;13.400;2022-10-19T11:06:21;0.90;;;0.70;;
2111;SDS011;1062;52.538;13.400;2022-10-19T11:09:12;2.00;;;0.80;;
2111;SDS011;1062;52.538;13.400;2022-10-19T11:11:55;0.70;;;0.70;;
2111;SDS011;1062;52.538;13.400;2022-10-19T11:14:35;1.43;;;0.90;;
2111;SDS011;1062;52.538;13.400;2022-10-19T11:17:28;4.30;;;0.90;;
2111;SDS011;1062;52.538;13.400;2022-10-19T11:19:56;1.17;;;0.73;;
2111;SDS011;1062;52.538;13.400;2022-10-19T11:43:37;1.00;;;0.70;;
2111;SDS011;1062;52.538;13.400;2022-10-19T11:49:01;1.43;;;0.80;;
2111;SDS011;1062;52.538;13.400;2022-10-19T11:51:52;1.40;;;0.90;;
2111;SDS011;1062;52.538;13.400;2022-10-19T11:54:37;1.47;;;1.30;;
2111;SDS011;1062;52.538;13.400;2022-10-19T11:57:42;2.23;;;1.73;;
2111;SDS011;1062;52.538;13.400;2022-10-19T12:00:21;1.40;;;0.80;;
2111;SDS011;1062;52.538;13.400;2022-10-19T12:02:52;1.77;;;0.87;;
2111;SDS011;1062;52.538;13.400;2022-10-19T12:14:02;2.53;;;0.67;;
2111;SDS011;1062;52.538;13.400;2022-10-19T12:16:34;1.20;;;0.80;;
2111;SDS011;1062;52.538;13.400;2022-10-19T12:19:03;1.30;;;0.90;;
2111;SDS011;1062;52.538;13.400;2022-10-19T12:21:35;1.40;;;0.70;;
2111;SDS011;1062;52.538;13.400;2022-10-19T12:24:03;2.30;;;0.80;;
2111;SDS011;1062;52.538;13.400;2022-10-19T12:26:36;1.17;;;0.87;;
2111;SDS011;1062;52.538;13.400;2022-10-19T12:29:11;1.83;;;1.00;;
2111;SDS011;1062;52.538;13.400;2022-10-19T12:31:41;1.10;;;0.80;;
2111;SDS011;1062;52.538;13.400;2022-10-19T12:37:18;1.93;;;0.80;;
2111;SDS011;1062;52.538;13.400;2022-10-19T12:53:32;0.80;;;0.80;;
2111;SDS011;1062;52.538;13.400;2022-10-19T13:06:42;1.70;;;0.80;;
2111;SDS011;1062;52.538;13.400;2022-10-19T13:09:21;2.53;;;0.93;;
2111;SDS011;1062;52.538;13.400;2022-10-19T13:14:55;1.00;;;0.73;;
2111;SDS011;1062;52.538;13.400;2022-10-19T13:27:41;3.37;;;1.10;;
2111;SDS011;1062;52.538;13.400;2022-10-19T13:40:55;2.50;;;1.20;;
2111;SDS011;1062;52.538;13.400;2022-10-19T13:46:05;2.50;;;0.80;;
2111;SDS011;1062;52.538;13.400;2022-10-19T13:54:45;5.70;;;1.00;;
2111;SDS011;1062;52.538;13.400;2022-10-19T13:57:51;0.80;;;0.80;;
2111;SDS011;1062;52.538;13.400;2022-10-19T14:00:29;2.27;;;1.30;;
2111;SDS011;1062;52.538;13.400;2022-10-19T14:03:19;1.13;;;1.00;;
2111;SDS011;1062;52.538;13.400;2022-10-19T14:11:02;0.90;;;0.83;;
2111;SDS011;1062;52.538;13.400;2022-10-19T14:13:30;1.20;;;0.80;;
2111;SDS011;1062;52.538;13.400;2022-10-19T14:15:56;1.80;;;0.80;;
2111;SDS011;1062;52.538;13.400;2022-10-19T14:18:26;0.70;;;0.70;;
2111;SDS011;1062;52.538;13.400;2022-10-19T14:21:00;2.30;;;0.90;;
2111;SDS011;1062;52.538;13.400;2022-10-19T14:23:36;1.07;;;1.03;;
2111;SDS011;1062;52.538;13.400;2022-10-19T14:26:06;1.10;;;0.80;;
2111;SDS011;1062;52.538;13.400;2022-10-19T14:28:43;1.10;;;0.70;;
2111;SDS011;1062;52.538;13.400;2022-10-19T14:31:09;0.90;;;0.70;;
2111;SDS011;1062;52.538;13.400;2022-10-19T14:33:47;5.07;;;1.10;;
2111;SDS011;1062;52.538;13.400;2022-10-19T14:36:16;1.67;;;1.07;;
2111;SDS011;1062;52.538;13.400;2022-10-19T14:38:45;0.80;;;0.80;;
2111;SDS011;1062;52.538;13.400;2022-10-19T14:41:19;1.37;;;0.90;;
2111;SDS011;1062;52.538;13.400;2022-10-19T14:43:54;1.83;;;0.73;;
2111;SDS011;1062;52.538;13.400;2022-10-19T14:46:20;1.47;;;0.90;;
2111;SDS011;1062;52.538;13.400;2022-10-19T14:48:50;2.03;;;0.80;;
2111;SDS011;1062;52.538;13.400;2022-10-19T14:51:35;1.67;;;0.90;;
2111;SDS011;1062;52.538;13.400;2022-10-19T14:54:07;0.90;;;0.80;;
2111;SDS011;1062;52.538;13.400;2022-10-19T14:56:51;1.43;;;1.00;;
2111;SDS011;1062;52.538;13.400;2022-10-19T14:59:34;1.00;;;0.90;;
2111;SDS011;1062;52.538;13.400;2022-10-19T15:02:01;2.77;;;0.90;;
2111;SDS011;1062;52.538;13.400;2022-10-19T15:04:36;1.20;;;0.73;;
2111;SDS011;1062;52.538;13.400;2022-10-19T15:07:03;1.77;;;0.80;;
2111;SDS011;1062;52.538;13.400;2022-10-19T15:09:41;0.90;;;0.80;;
2111;SDS011;1062;52.538;13.400;2022-10-19T15:12:14;0.90;;;0.70;;
2111;SDS011;1062;52.538;13.400;2022-10-19T15:14:42;0.87;;;0.67;;
2111;SDS011;1062;52.538;13.400;2022-10-19T15:17:21;2.03;;;1.10;;
2111;SDS011;1062;52.538;13.400;2022-10-19T15:19:52;2.60;;;0.77;;
2111;SDS011;1062;52.538;13.400;2022-10-19T15:25:17;3.37;;;1.57;;
2111;SDS011;1062;52.538;13.400;2022-10-19T15:27:49;0.90;;;0.80;;
2111;SDS011;1062;52.538;13.400;2022-10-19T15:33:28;1.37;;;1.27;;
2111;SDS011;1062;52.538;13.400;2022-10-19T15:35:29;2.83;;;1.30;;
2111;SDS011;1062;52.538;13.400;2022-10-19T15:40:47;1.00;;;0.90;;
2111;SDS011;1062;52.538;13.400;2022-10-19T15:51:08;1.60;;;1.03;;
2111;SDS011;1062;52.538;13.400;2022-10-19T15:53:51;1.50;;;1.10;;
2111;SDS011;1062;52.538;13.400;2022-10-19T15:56:18;1.93;;;0.87;;
2111;SDS011;1062;52.538;13.400;2022-10-19T15:58:47;1.10;;;1.00;;
2111;SDS011;1062;52.538;13.400;2022-10-19T16:01:14;2.50;;;1.10;;
2111;SDS011;1062;52.538;13.400;2022-10-19T16:03:41;1.23;;;1.00;;
2111;SDS011;1062;52.538;13.400;2022-10-19T16:06:07;1.23;;;0.90;;
2111;SDS011;1062;52.538;13.400;2022-10-19T16:08:33;2.90;;;1.47;;
2111;SDS011;1062;52.538;13.400;2022-10-19T16:10:58;1.30;;;1.07;;
2111;SDS011;1062;52.538;13.400;2022-10-19T16:13:24;2.37;;;2.03;;
2111;SDS011;1062;52.538;13.400;2022-10-19T16:15:50;2.33;;;1.27;;
2111;SDS011;1062;52.538;13.400;2022-10-19T16:18:18;1.40;;;1.17;;
2111;SDS011;1062;52.538;13.400;2022-10-19T16:20:44;1.70;;;1.30;;
2111;SDS011;1062;52.538;13.400;2022-10-19T16:23:10;6.47;;;1.70;;
2111;SDS011;1062;52.538;13.400;2022-10-19T16:25:36;2.33;;;1.43;;
2111;SDS011;1062;52.538;13.400;2022-10-19T16:28:02;1.80;;;1.20;;
2111;SDS011;1062;52.538;13.400;2022-10-19T16:30:28;2.40;;;1.17;;
2111;SDS011;1062;52.538;13.400;2022-10-19T16:32:53;1.60;;;1.00;;
2111;SDS011;1062;52.538;13.400;2022-10-19T16:35:19;2.73;;;1.63;;
2111;SDS011;1062;52.538;13.400;2022-10-19T16:37:44;1.70;;;1.20;;
2111;SDS011;1062;52.538;13.400;2022-10-19T16:40:10;3.20;;;1.80;;
2111;SDS011;1062;52.538;13.400;2022-10-19T16:42:35;1.60;;;1.50;;
2111;SDS011;1062;52.538;13.400;2022-10-19T16:45:01;2.63;;;1.80;;
2111;SDS011;1062;52.538;13.400;2022-10-19T16:47:26;2.67;;;1.70;;
2111;SDS011;1062;52.538;13.400;2022-10-19T16:49:56;3.20;;;1.40;;
2111;SDS011;1062;52.538;13.400;2022-10-19T16:52:24;1.80;;;1.60;;
2111;SDS011;1062;52.538;13.400;2022-10-19T16:54:50;2.13;;;1.30;;
2111;SDS011;1062;52.538;13.400;2022-10-19T16:57:15;1.70;;;1.50;;
2111;SDS011;1062;52.538;13.400;2022-10-19T16:59:41;6.83;;;2.10;;
2111;SDS011;1062;52.538;13.400;2022-10-19T17:02:08;2.90;;;2.23;;
2111;SDS011;1062;52.538;13.400;2022-10-19T17:04:34;2.90;;;1.63;;
2111;SDS011;1062;52.538;13.400;2022-10-19T17:07:00;2.00;;;1.90;;
2111;SDS011;1062;52.538;13.400;2022-10-19T17:09:25;2.17;;;1.60;;
2111;SDS011;1062;52.538;13.400;2022-10-19T17:11:51;2.77;;;1.80;;
2111;SDS011;1062;52.538;13.400;2022-10-19T17:14:16;3.07;;;1.90;;
2111;SDS011;1062;52.538;13.400;2022-10-19T17:16:42;2.30;;;1.90;;
2111;SDS011;1062;52.538;13.400;2022-10-19T17:19:07;2.63;;;2.30;;
2111;SDS011;1062;52.538;13.400;2022-10-19T17:21:34;4.10;;;1.90;;
2111;SDS011;1062;52.538;13.400;2022-10-19T17:24:03;4.83;;;2.13;;
2111;SDS011;1062;52.538;13.400;2022-10-19T17:26:30;2.70;;;2.07;;
2111;SDS011;1062;52.538;13.400;2022-10-19T17:29:01;2.90;;;1.73;;
2111;SDS011;1062;52.538;13.400;2022-10-19T17:31:28;4.23;;;2.10;;
2111;SDS011;1062;52.538;13.400;2022-10-19T17:33:53;2.37;;;1.50;;
2111;SDS011;1062;52.538;13.400;2022-10-19T17:36:23;3.77;;;2.13;;
2111;SDS011;1062;52.538;13.400;2022-10-19T17:38:55;3.07;;;1.80;;
2111;SDS011;1062;52.538;13.400;2022-10-19T17:41:26;3.83;;;2.30;;
2111;SDS011;1062;52.538;13.400;2022-10-19T17:43:53;2.97;;;2.33;;
2111;SDS011;1062;52.538;13.400;2022-10-19T17:46:20;4.40;;;2.30;;
2111;SDS011;1062;52.538;13.400;2022-10-19T17:48:47;3.57;;;2.60;;
2111;SDS011;1062;52.538;13.400;2022-10-19T17:51:14;3.70;;;2.67;;
2111;SDS011;1062;52.538;13.400;2022-10-19T17:53:45;3.17;;;2.70;;
2111;SDS011;1062;52.538;13.400;2022-10-19T17:56:14;5.07;;;3.10;;
2111;SDS011;1062;52.538;13.400;2022-10-19T17:58:44;3.93;;;3.50;;
2111;SDS011;1062;52.538;13.400;2022-10-19T18:01:10;5.90;;;2.70;;
2111;SDS011;1062;52.538;13.400;2022-10-19T18:03:36;5.90;;;3.17;;
2111;SDS011;1062;52.538;13.400;2022-10-19T18:06:04;4.23;;;3.83;;
2111;SDS011;1062;52.538;13.400;2022-10-19T18:08:33;6.37;;;3.70;;
2111;SDS011;1062;52.538;13.400;2022-10-19T18:11:10;6.00;;;3.97;;